Time;durP1;ratioP1;P1;durP2;ratioP2;P2;SDS_P1;SDS_P2;PMS_P1;PMS_P2;Temp;Humidity;BMP_temperature;BMP_pressure;BME280_temperature;BME280_humidity;BME280_pressure;Samples;Min_cycle;Max_cycle;Signal;HPM_P1;HPM_P2
2022/06/15 00:01:15;;;;;;;;;;;;;;;;;;5078832;28;19919;-80
2022/06/15 00:04:03;;;;;;;;;;;;;;;;;;5083383;28;19912;-80
2022/06/15 00:06:50;;;;;;;;;;;;;;;;;;5085107;28;19931;-80
2022/06/15 00:09:36;;;;;;;;;;;;;;;;;;5084688;28;19931;-81
2022/06/15 00:12:23;;;;;;;;;;;;;;;;;;5084792;28;19923;-82
2022/06/15 00:15:09;;;;;;;;;;;;;;;;;;5081475;28;19940;-81
2022/06/15 00:17:55;;;;;;;;;;;;;;;;;;5078079;28;19915;-80
2022/06/15 00:20:42;;;;;;;;;;;;;;;;;;5085377;28;19932;-80
2022/06/15 00:23:28;;;;;;;;;;;;;;;;;;5072958;28;19916;-80
2022/06/15 00:26:15;;;;;;;;;;;;;;;;;;5083464;28;19917;-82
2022/06/15 00:29:01;;;;;;;;;;;;;;;;;;5083396;28;19912;-80
2022/06/15 00:31:48;;;;;;;;;;;;;;;;;;5077990;28;19916;-80
2022/06/15 00:34:34;;;;;;;;;;;;;;;;;;5080799;28;19919;-80
2022/06/15 00:37:21;;;;;;;;;;;;;;;;;;5078491;28;19996;-81
2022/06/15 00:40:07;;;;;;;;;;;;;;;;;;5076572;28;19941;-80
2022/06/15 00:42:54;;;;;;;;;;;;;;;;;;5075399;28;19919;-80
2022/06/15 00:45:40;;;;;;;;;;;;;;;;;;5080416;28;19919;-80
2022/06/15 00:48:27;;;;;;;;;;;;;;;;;;5089481;28;19920;-80
2022/06/15 00:51:13;;;;;;;;;;;;;;;;;;5090126;28;19935;-80
2022/06/15 00:53:59;;;;;;;;;;;;;;;;;;5078385;28;20022;-80
2022/06/15 00:56:46;;;;;;;;;;;;;;;;;;5088419;28;19919;-83
2022/06/15 00:59:32;;;;;;;;;;;;;;;;;;5088094;28;19920;-81
2022/06/15 01:02:19;;;;;;;;;;;;;;;;;;5086757;28;20280;-82
2022/06/15 01:05:05;;;;;;;;;;;;;;;;;;5089242;28;19912;-82
2022/06/15 01:07:52;;;;;;;;;;;;;;;;;;5088196;28;20367;-83
2022/06/15 01:10:38;;;;;;;;;;;;;;;;;;5080066;28;19919;-81
2022/06/15 01:13:25;;;;;;;;;;;;;;;;;;5085517;28;21385;-79
2022/06/15 01:16:11;;;;;;;;;;;;;;;;;;5087133;28;19919;-80
2022/06/15 01:18:57;;;;;;;;;;;;;;;;;;5074896;28;19934;-81
2022/06/15 01:21:44;;;;;;;;;;;;;;;;;;5072661;28;19928;-81
2022/06/15 01:24:30;;;;;;;;;;;;;;;;;;5081382;28;19912;-82
2022/06/15 01:27:17;;;;;;;;;;;;;;;;;;5085797;28;19919;-80
2022/06/15 01:30:06;;;;;;;;;;;;;;;;;;5077419;28;19920;-81
2022/06/15 01:32:52;;;;;;;;;;;;;;;;;;5085623;28;19912;-80
2022/06/15 01:35:39;;;;;;;;;;;;;;;;;;5088362;28;19912;-81
2022/06/15 01:38:25;;;;;;;;;;;;;;;;;;5087796;28;19927;-81
2022/06/15 01:41:12;;;;;;;;;;;;;;;;;;5077760;28;19920;-80
2022/06/15 01:43:58;;;;;;;;;;;;;;;;;;5067753;28;20295;-79
2022/06/15 01:46:45;;;;;;;;;;;;;;;;;;5085375;28;19912;-80
2022/06/15 01:49:31;;;;;;;;;;;;;;;;;;5083733;28;19924;-80
2022/06/15 01:52:18;;;;;;;;;;;;;;;;;;5080707;28;19921;-80
2022/06/15 01:55:04;;;;;;;;;;;;;;;;;;5081656;28;20353;-80
2022/06/15 01:57:51;;;;;;;;;;;;;;;;;;5086515;28;19919;-81
2022/06/15 02:00:37;;;;;;;;;;;;;;;;;;5084915;28;19916;-81
2022/06/15 02:03:24;;;;;;;;;;;;;;;;;;5089880;28;19920;-81
2022/06/15 02:06:10;;;;;;;;;;;;;;;;;;5090513;28;19916;-80
2022/06/15 02:08:57;;;;;;;;;;;;;;;;;;5096797;28;20326;-82
2022/06/15 02:11:43;;;;;;;;;;;;;;;;;;5094006;28;19922;-81
2022/06/15 02:14:30;;;;;;;;;;;;;;;;;;5085106;28;19912;-82
2022/06/15 02:17:16;;;;;;;;;;;;;;;;;;5090097;28;19918;-81
2022/06/15 02:20:03;;;;;;;;;;;;;;;;;;5087524;28;19920;-82
2022/06/15 02:22:49;;;;;;;;;;;;;;;;;;5069261;28;19922;-81
2022/06/15 02:25:36;;;;;;;;;;;;;;;;;;5084132;28;19927;-80
2022/06/15 02:28:22;;;;;;;;;;;;;;;;;;5084948;28;19920;-79
2022/06/15 02:31:09;;;;;;;;;;;;;;;;;;5082927;28;19916;-79
2022/06/15 02:33:57;;;;;;;;;;;;;;;;;;5084417;28;19912;-79
2022/06/15 02:36:43;;;;;;;;;;;;;;;;;;5071021;28;19920;-81
2022/06/15 02:39:30;;;;;;;;;;;;;;;;;;5070764;28;19922;-80
2022/06/15 02:42:16;;;;;;;;;;;;;;;;;;5089498;28;19942;-80
2022/06/15 02:45:02;;;;;;;;;;;;;;;;;;5086743;28;19912;-80
2022/06/15 02:47:49;;;;;;;;;;;;;;;;;;5076270;28;19912;-80
2022/06/15 02:50:35;;;;;;;;;;;;;;;;;;5084304;28;20035;-80
2022/06/15 02:53:22;;;;;;;;;;;;;;;;;;5083051;28;20091;-80
2022/06/15 02:56:08;;;;;;;;;;;;;;;;;;5079023;28;19920;-80
2022/06/15 02:58:57;;;;;;;;;;;;;;;;;;5079728;28;19986;-80
2022/06/15 03:01:46;;;;;;;;;;;;;;;;;;5083282;28;19921;-82
2022/06/15 03:04:32;;;;;;;;;;;;;;;;;;5082124;28;19912;-80
2022/06/15 03:07:22;;;;;;;;;;;;;;;;;;5064881;28;19912;-80
2022/06/15 03:10:08;;;;;;;;;;;;;;;;;;5082059;28;19912;-81
2022/06/15 03:12:55;;;;;;;;;;;;;;;;;;5087241;28;19916;-80
2022/06/15 03:15:41;;;;;;;;;;;;;;;;;;5083540;28;19912;-80
2022/06/15 03:18:28;;;;;;;;;;;;;;;;;;5085000;28;19912;-81
2022/06/15 03:21:15;;;;;;;;;;;;;;;;;;5081118;28;19920;-80
2022/06/15 03:24:01;;;;;;;;;;;;;;;;;;5073840;28;19919;-80
2022/06/15 03:26:47;;;;;;;;;;;;;;;;;;5086000;28;19919;-81
2022/06/15 03:29:36;;;;;;;;;;;;;;;;;;5079971;28;19920;-80
2022/06/15 03:32:22;;;;;;;;;;;;;;;;;;5071960;28;19935;-80
2022/06/15 03:35:09;;;;;;;;;;;;;;;;;;5071626;28;19916;-80
2022/06/15 03:37:55;;;;;;;;;;;;;;;;;;5079398;28;19912;-80
2022/06/15 03:40:42;;;;;;;;;;;;;;;;;;5081915;28;19927;-80
2022/06/15 03:43:28;;;;;;;;;;;;;;;;;;5081983;28;19916;-80
2022/06/15 03:46:14;;;;;;;;;;;;;;;;;;5082195;28;19920;-81
2022/06/15 03:49:01;;;;;;;;;;;;;;;;;;5062808;28;19918;-80
2022/06/15 03:51:47;;;;;;;;;;;;;;;;;;5082417;28;19920;-80
2022/06/15 03:54:35;;;;;;;;;;;;;;;;;;5083987;28;19927;-80
2022/06/15 03:57:21;;;;;;;;;;;;;;;;;;5085499;28;20039;-80
2022/06/15 04:00:08;;;;;;;;;;;;;;;;;;5078081;28;19927;-80
2022/06/15 04:02:54;;;;;;;;;;;;;;;;;;5076375;28;19916;-78
2022/06/15 04:05:41;;;;;;;;;;;;;;;;;;5076047;28;19913;-78
2022/06/15 04:08:42;;;;;;;;;;;;;;;;;;5077017;28;19926;-80
2022/06/15 04:14:35;;;;;;;;;;;;;;;;;;5073094;28;19923;-78
2022/06/15 04:17:27;;;;;;;;;;;;;;;;;;5075827;28;19912;-79
2022/06/15 04:20:32;;;;;;;;;;;;;;;;;;5078604;28;19924;-77
2022/06/15 04:23:19;;;;;;;;;;;;;;;;;;5080372;28;19924;-78
2022/06/15 04:26:05;;;;;;;;;;;;;;;;;;5065032;28;19921;-79
2022/06/15 04:28:52;;;;;;;;;;;;;;;;;;5083367;28;19927;-79
2022/06/15 04:31:38;;;;;;;;;;;;;;;;;;5080887;28;19923;-79
2022/06/15 04:34:25;;;;;;;;;;;;;;;;;;5070087;28;19938;-79
2022/06/15 04:37:11;;;;;;;;;;;;;;;;;;5078677;28;19922;-78
2022/06/15 04:39:58;;;;;;;;;;;;;;;;;;5075976;28;19920;-79
2022/06/15 04:42:44;;;;;;;;;;;;;;;;;;5079304;28;19926;-82
2022/06/15 04:45:31;;;;;;;;;;;;;;;;;;5081421;28;19927;-79
2022/06/15 04:48:17;;;;;;;;;;;;;;;;;;5083505;28;20415;-79
2022/06/15 04:51:04;;;;;;;;;;;;;;;;;;5077912;28;19922;-79
2022/06/15 04:53:50;;;;;;;;;;;;;;;;;;5079884;28;19931;-78
2022/06/15 04:56:37;;;;;;;;;;;;;;;;;;5077627;28;19912;-80
2022/06/15 04:59:24;;;;;;;;;;;;;;;;;;5067788;28;19923;-80
2022/06/15 05:02:10;;;;;;;;;;;;;;;;;;5069300;28;19916;-79
2022/06/15 05:04:59;;;;;;;;;;;;;;;;;;5081971;28;19916;-79
2022/06/15 05:07:45;;;;;;;;;;;;;;;;;;5086404;28;19986;-78
2022/06/15 05:10:32;;;;;;;;;;;;;;;;;;5087142;28;20291;-79
2022/06/15 05:13:18;;;;;;;;;;;;;;;;;;5086773;28;19916;-78
2022/06/15 05:16:05;;;;;;;;;;;;;;;;;;5080916;28;19916;-78
2022/06/15 05:18:51;;;;;;;;;;;;;;;;;;5075013;28;19908;-80
2022/06/15 05:21:38;;;;;;;;;;;;;;;;;;5082773;28;19945;-78
2022/06/15 05:24:24;;;;;;;;;;;;;;;;;;5088410;28;19916;-79
2022/06/15 05:27:10;;;;;;;;;;;;;;;;;;5087290;28;19908;-78
2022/06/15 05:29:57;;;;;;;;;;;;;;;;;;5076723;28;20547;-77
2022/06/15 05:32:43;;;;;;;;;;;;;;;;;;5070519;28;19916;-79
2022/06/15 05:35:30;;;;;;;;;;;;;;;;;;5086675;28;20367;-78
2022/06/15 05:38:16;;;;;;;;;;;;;;;;;;5074255;28;19908;-80
2022/06/15 05:41:03;;;;;;;;;;;;;;;;;;5082077;28;20375;-78
2022/06/15 05:43:57;;;;;;;;;;;;;;;;;;5083921;28;19982;-79
2022/06/15 05:46:44;;;;;;;;;;;;;;;;;;5084354;28;19922;-80
2022/06/15 05:49:30;;;;;;;;;;;;;;;;;;5065578;28;19915;-80
2022/06/15 05:52:17;;;;;;;;;;;;;;;;;;5081733;28;19920;-78
2022/06/15 05:55:03;;;;;;;;;;;;;;;;;;5076945;28;19916;-80
2022/06/15 05:57:50;;;;;;;;;;;;;;;;;;5083342;28;19919;-79
2022/06/15 06:00:37;;;;;;;;;;;;;;;;;;5084127;28;20282;-80
2022/06/15 06:03:24;;;;;;;;;;;;;;;;;;5082285;28;19912;-80
2022/06/15 06:06:10;;;;;;;;;;;;;;;;;;5088091;28;20493;-81
2022/06/15 06:08:57;;;;;;;;;;;;;;;;;;5088742;28;19908;-80
2022/06/15 06:11:43;;;;;;;;;;;;;;;;;;5063002;28;19912;-80
2022/06/15 06:14:30;;;;;;;;;;;;;;;;;;5088641;28;19912;-80
2022/06/15 06:17:16;;;;;;;;;;;;;;;;;;5059217;28;19913;-80
2022/06/15 06:20:02;;;;;;;;;;;;;;;;;;5080376;28;19928;-79
2022/06/15 06:22:49;;;;;;;;;;;;;;;;;;5080094;28;19918;-80
2022/06/15 06:25:35;;;;;;;;;;;;;;;;;;5087739;28;19915;-79
2022/06/15 06:28:22;;;;;;;;;;;;;;;;;;5083734;28;19921;-79
2022/06/15 06:31:08;;;;;;;;;;;;;;;;;;5077464;28;19928;-79
2022/06/15 06:33:55;;;;;;;;;;;;;;;;;;5076673;28;19916;-79
2022/06/15 06:36:41;;;;;;;;;;;;;;;;;;5079825;28;19915;-79
2022/06/15 06:39:28;;;;;;;;;;;;;;;;;;5073130;28;20308;-79
2022/06/15 06:42:14;;;;;;;;;;;;;;;;;;5063767;28;19920;-78
2022/06/15 06:45:01;;;;;;;;;;;;;;;;;;5075027;28;20436;-79
2022/06/15 06:47:48;;;;;;;;;;;;;;;;;;5076606;28;19913;-79
2022/06/15 06:50:35;;;;;;;;;;;;;;;;;;5080367;28;19924;-78
2022/06/15 06:53:22;;;;;;;;;;;;;;;;;;5070919;28;20284;-79
2022/06/15 06:56:08;;;;;;;;;;;;;;;;;;5071229;28;19918;-79
2022/06/15 06:58:55;;;;;;;;;;;;;;;;;;5086255;28;19919;-79
2022/06/15 07:01:41;;;;;;;;;;;;;;;;;;5079422;28;20392;-82
2022/06/15 07:04:29;;;;;;;;;;;;;;;;;;5080097;28;19926;-80
2022/06/15 07:07:16;;;;;;;;;;;;;;;;;;5080642;28;19917;-80
2022/06/15 07:10:02;;;;;;;;;;;;;;;;;;5075536;28;20292;-79
2022/06/15 07:12:48;;;;;;;;;;;;;;;;;;5077141;28;19913;-79
2022/06/15 07:15:36;;;;;;;;;;;;;;;;;;5083690;28;19916;-79
2022/06/15 07:18:23;;;;;;;;;;;;;;;;;;5072140;28;19920;-79
2022/06/15 07:21:12;;;;;;;;;;;;;;;;;;5074962;28;19916;-79
2022/06/15 07:23:59;;;;;;;;;;;;;;;;;;5078006;28;19912;-82
2022/06/15 07:26:47;;;;;;;;;;;;;;;;;;5076658;28;19913;-80
2022/06/15 07:29:33;;;;;;;;;;;;;;;;;;5085713;28;20288;-79
2022/06/15 07:32:20;;;;;;;;;;;;;;;;;;5073993;28;19915;-78
2022/06/15 07:35:06;;;;;;;;;;;;;;;;;;5073000;28;19916;-78
2022/06/15 07:37:53;;;;;;;;;;;;;;;;;;5075979;28;19908;-78
2022/06/15 07:40:39;;;;;;;;;;;;;;;;;;5079639;28;19917;-79
2022/06/15 07:43:26;;;;;;;;;;;;;;;;;;5064019;28;19924;-78
2022/06/15 07:46:12;;;;;;;;;;;;;;;;;;5076057;28;19914;-79
2022/06/15 07:52:04;;;;;;;;;;;;;;;;;;5088440;28;19946;-80
2022/06/15 07:54:50;;;;;;;;;;;;;;;;;;5084130;28;20296;-80
2022/06/15 07:57:37;;;;;;;;;;;;;;;;;;5083436;28;19928;-78
2022/06/15 08:00:23;;;;;;;;;;;;;;;;;;5095472;28;19934;-80
2022/06/15 08:03:09;;;;;;;;;;;;;;;;;;5089362;28;19919;-80
2022/06/15 08:05:56;;;;;;;;;;;;;;;;;;5073392;28;19915;-80
2022/06/15 08:08:42;;;;;;;;;;;;;;;;;;5087715;28;19909;-79
2022/06/15 08:11:29;;;;;;;;;;;;;;;;;;5087980;28;19916;-79
2022/06/15 08:14:15;;;;;;;;;;;;;;;;;;5078571;28;19916;-80
2022/06/15 08:17:02;;;;;;;;;;;;;;;;;;5091439;28;19908;-80
2022/06/15 08:19:48;;;;;;;;;;;;;;;;;;5084354;28;19927;-79
2022/06/15 08:22:35;;;;;;;;;;;;;;;;;;5075167;28;20328;-79
2022/06/15 08:25:21;;;;;;;;;;;;;;;;;;5089332;28;19920;-79
2022/06/15 08:28:11;;;;;;;;;;;;;;;;;;5090961;28;20291;-79
2022/06/15 08:30:57;;;;;;;;;;;;;;;;;;5075798;28;19927;-78
2022/06/15 08:33:44;;;;;;;;;;;;;;;;;;5083517;28;19935;-79
2022/06/15 08:36:31;;;;;;;;;;;;;;;;;;5089721;28;19922;-79
2022/06/15 08:39:17;;;;;;;;;;;;;;;;;;5091630;28;19916;-79
2022/06/15 08:42:04;;;;;;;;;;;;;;;;;;5090192;28;19927;-79
2022/06/15 08:44:50;;;;;;;;;;;;;;;;;;5090250;28;20308;-79
2022/06/15 08:47:40;;;;;;;;;;;;;;;;;;5083378;28;20379;-79
2022/06/15 08:50:26;;;;;;;;;;;;;;;;;;5084530;28;20385;-79
2022/06/15 08:53:13;;;;;;;;;;;;;;;;;;5084283;28;20384;-79
2022/06/15 08:55:59;;;;;;;;;;;;;;;;;;5090014;28;19919;-79
2022/06/15 08:58:46;;;;;;;;;;;;;;;;;;5086926;28;20307;-79
2022/06/15 09:01:32;;;;;;;;;;;;;;;;;;5075796;28;19942;-79
2022/06/15 09:04:19;;;;;;;;;;;;;;;;;;5075327;28;19912;-79
2022/06/15 09:07:06;;;;;;;;;;;;;;;;;;5073581;28;20304;-79
2022/06/15 09:09:52;;;;;;;;;;;;;;;;;;5076602;28;19908;-79
2022/06/15 09:12:58;;;;;;;;;;;;;;;;;;5076569;28;19920;-79
2022/06/15 09:15:45;;;;;;;;;;;;;;;;;;5078685;28;19912;-79
2022/06/15 09:18:31;;;;;;;;;;;;;;;;;;5077001;28;20379;-80
2022/06/15 09:21:18;;;;;;;;;;;;;;;;;;5081610;28;19920;-79
2022/06/15 09:24:04;;;;;;;;;;;;;;;;;;5082212;28;19915;-80
2022/06/15 09:26:51;;;;;;;;;;;;;;;;;;5080816;28;20474;-80
2022/06/15 09:29:41;;;;;;;;;;;;;;;;;;5078537;28;19924;-80
2022/06/15 09:32:27;;;;;;;;;;;;;;;;;;5071416;28;19912;-79
2022/06/15 09:35:16;;;;;;;;;;;;;;;;;;5080578;28;19916;-79
2022/06/15 09:38:02;;;;;;;;;;;;;;;;;;5073029;28;19909;-79
2022/06/15 09:40:49;;;;;;;;;;;;;;;;;;5078457;28;19927;-79
2022/06/15 09:43:38;;;;;;;;;;;;;;;;;;5065289;28;20136;-78
2022/06/15 09:46:28;;;;;;;;;;;;;;;;;;5083857;28;19930;-79
2022/06/15 09:49:14;;;;;;;;;;;;;;;;;;5073949;28;20280;-80
2022/06/15 09:52:01;;;;;;;;;;;;;;;;;;5081574;28;20001;-78
2022/06/15 09:54:47;;;;;;;;;;;;;;;;;;5077965;28;19913;-80
2022/06/15 09:57:34;;;;;;;;;;;;;;;;;;5074799;28;19919;-79
2022/06/15 10:00:20;;;;;;;;;;;;;;;;;;5079295;28;19916;-79
2022/06/15 10:03:07;;;;;;;;;;;;;;;;;;5074893;28;20315;-78
2022/06/15 10:05:53;;;;;;;;;;;;;;;;;;5074919;28;19916;-79
2022/06/15 10:08:40;;;;;;;;;;;;;;;;;;5073879;28;20493;-79
2022/06/15 10:11:26;;;;;;;;;;;;;;;;;;5074853;28;20473;-79
2022/06/15 10:14:13;;;;;;;;;;;;;;;;;;5075048;28;19912;-80
2022/06/15 10:16:59;;;;;;;;;;;;;;;;;;5069365;28;20670;-78
2022/06/15 10:19:46;;;;;;;;;;;;;;;;;;5069293;28;19936;-79
2022/06/15 10:22:32;;;;;;;;;;;;;;;;;;5069587;28;19927;-79
2022/06/15 10:25:19;;;;;;;;;;;;;;;;;;5081039;28;19919;-80
2022/06/15 10:28:05;;;;;;;;;;;;;;;;;;5083303;28;19930;-79
2022/06/15 10:30:52;;;;;;;;;;;;;;;;;;5070560;28;19916;-78
2022/06/15 10:33:38;;;;;;;;;;;;;;;;;;5085608;28;19917;-78
2022/06/15 10:36:25;;;;;;;;;;;;;;;;;;5077508;28;19944;-79
2022/06/15 10:39:11;;;;;;;;;;;;;;;;;;5073683;28;19914;-77
2022/06/15 10:41:58;;;;;;;;;;;;;;;;;;5086439;28;19916;-79
2022/06/15 10:44:44;;;;;;;;;;;;;;;;;;5080317;28;19916;-79
2022/06/15 10:47:31;;;;;;;;;;;;;;;;;;5081317;28;19919;-78
2022/06/15 10:50:17;;;;;;;;;;;;;;;;;;5080798;28;19908;-78
2022/06/15 10:53:06;;;;;;;;;;;;;;;;;;5085648;28;20402;-78
2022/06/15 11:02:06;;;;;;;;;;;;;;;;;;5082354;28;20006;-77
2022/06/15 11:04:54;;;;;;;;;;;;;;;;;;5085253;28;20287;-77
2022/06/15 11:07:40;;;;;;;;;;;;;;;;;;5080626;28;20287;-77
2022/06/15 11:10:27;;;;;;;;;;;;;;;;;;5066980;28;19916;-77
2022/06/15 11:13:13;;;;;;;;;;;;;;;;;;5080459;28;19936;-77
2022/06/15 11:19:05;;;;;;;;;;;;;;;;;;5086916;28;19931;-77
2022/06/15 11:21:52;;;;;;;;;;;;;;;;;;5074586;28;20411;-77
2022/06/15 11:24:38;;;;;;;;;;;;;;;;;;5077252;28;20038;-77
2022/06/15 11:27:24;;;;;;;;;;;;;;;;;;5080055;28;20287;-77
2022/06/15 11:30:20;;;;;;;;;;;;;;;;;;5075319;28;19916;-77
2022/06/15 11:33:07;;;;;;;;;;;;;;;;;;5065926;28;19916;-77
2022/06/15 11:35:53;;;;;;;;;;;;;;;;;;5071764;28;19923;-77
2022/06/15 11:38:40;;;;;;;;;;;;;;;;;;5079248;28;19919;-76
2022/06/15 11:41:26;;;;;;;;;;;;;;;;;;5082365;28;20430;-77
2022/06/15 11:44:13;;;;;;;;;;;;;;;;;;5074429;28;19943;-78
2022/06/15 11:46:59;;;;;;;;;;;;;;;;;;5086045;28;20360;-78
2022/06/15 11:49:47;;;;;;;;;;;;;;;;;;5087696;28;19908;-77
2022/06/15 11:52:33;;;;;;;;;;;;;;;;;;5079798;28;19931;-76
2022/06/15 11:55:20;;;;;;;;;;;;;;;;;;5087748;28;19923;-77
2022/06/15 11:58:09;;;;;;;;;;;;;;;;;;5083365;28;20394;-78
2022/06/15 12:00:55;;;;;;;;;;;;;;;;;;5082625;28;20377;-76
2022/06/15 12:03:42;;;;;;;;;;;;;;;;;;5081392;28;19931;-75
2022/06/15 12:06:28;;;;;;;;;;;;;;;;;;5080874;28;19908;-77
2022/06/15 12:09:15;;;;;;;;;;;;;;;;;;5081177;28;19908;-76
2022/06/15 12:15:06;;;;;;;;;;;;;;;;;;5088562;28;19918;-77
2022/06/15 12:17:53;;;;;;;;;;;;;;;;;;5086809;28;19931;-77
2022/06/15 12:20:39;;;;;;;;;;;;;;;;;;5081959;28;19924;-76
2022/06/15 12:23:26;;;;;;;;;;;;;;;;;;5078100;28;19923;-77
2022/06/15 12:26:13;;;;;;;;;;;;;;;;;;5086412;28;19920;-77
2022/06/15 12:29:01;;;;;;;;;;;;;;;;;;5083060;28;19922;-76
2022/06/15 12:31:47;;;;;;;;;;;;;;;;;;5078566;28;19915;-77
2022/06/15 12:34:34;;;;;;;;;;;;;;;;;;5072861;28;19920;-76
2022/06/15 12:37:20;;;;;;;;;;;;;;;;;;5081383;28;19912;-75
2022/06/15 12:40:07;;;;;;;;;;;;;;;;;;5080113;28;20475;-77
2022/06/15 12:42:54;;;;;;;;;;;;;;;;;;5081661;28;20365;-76
2022/06/15 12:45:40;;;;;;;;;;;;;;;;;;5087337;28;19915;-76
2022/06/15 12:48:27;;;;;;;;;;;;;;;;;;5085807;28;19912;-76
2022/06/15 12:51:13;;;;;;;;;;;;;;;;;;5082235;28;19944;-76
2022/06/15 12:54:00;;;;;;;;;;;;;;;;;;5078941;28;19932;-78
2022/06/15 12:56:46;;;;;;;;;;;;;;;;;;5076099;28;19923;-76
2022/06/15 12:59:32;;;;;;;;;;;;;;;;;;5082422;28;19927;-77
2022/06/15 13:02:19;;;;;;;;;;;;;;;;;;5082786;28;19944;-77
2022/06/15 13:05:06;;;;;;;;;;;;;;;;;;5077750;28;19912;-77
2022/06/15 13:07:52;;;;;;;;;;;;;;;;;;5068315;28;19913;-76
2022/06/15 13:10:39;;;;;;;;;;;;;;;;;;5088304;28;19911;-76
2022/06/15 13:13:25;;;;;;;;;;;;;;;;;;5084411;28;20006;-76
2022/06/15 13:16:12;;;;;;;;;;;;;;;;;;5087201;28;19912;-78
2022/06/15 13:18:59;;;;;;;;;;;;;;;;;;5084697;28;19921;-77
2022/06/15 13:21:46;;;;;;;;;;;;;;;;;;5080153;28;20299;-80
2022/06/15 13:24:32;;;;;;;;;;;;;;;;;;5081536;28;19919;-78
2022/06/15 13:27:19;;;;;;;;;;;;;;;;;;5079552;28;19916;-81
2022/06/15 13:30:12;;;;;;;;;;;;;;;;;;5081770;28;19919;-82
2022/06/15 13:33:01;;;;;;;;;;;;;;;;;;5085455;28;20665;-82
2022/06/15 13:35:50;;;;;;;;;;;;;;;;;;5087279;28;19912;-81
2022/06/15 13:38:37;;;;;;;;;;;;;;;;;;5082647;28;19916;-85
2022/06/15 13:41:23;;;;;;;;;;;;;;;;;;5092433;28;19974;-87
2022/06/15 13:44:13;;;;;;;;;;;;;;;;;;5092267;28;19908;-88
2022/06/15 13:46:59;;;;;;;;;;;;;;;;;;5071222;28;20287;-88
2022/06/15 13:49:46;;;;;;;;;;;;;;;;;;5084164;28;19912;-85
2022/06/15 13:52:33;;;;;;;;;;;;;;;;;;5085364;28;19928;-87
2022/06/15 13:55:21;;;;;;;;;;;;;;;;;;5083789;28;20127;-85
2022/06/15 13:58:07;;;;;;;;;;;;;;;;;;5082782;28;19912;-89
2022/06/15 14:00:54;;;;;;;;;;;;;;;;;;5086405;28;19947;-81
2022/06/15 14:03:40;;;;;;;;;;;;;;;;;;5079757;28;19908;-84
2022/06/15 14:06:27;;;;;;;;;;;;;;;;;;5100119;28;19916;-85
2022/06/15 14:09:13;;;;;;;;;;;;;;;;;;5083840;28;19908;-88
2022/06/15 14:12:03;;;;;;;;;;;;;;;;;;5079794;28;19908;-88
2022/06/15 14:14:49;;;;;;;;;;;;;;;;;;5090299;28;19908;-87
2022/06/15 14:17:36;;;;;;;;;;;;;;;;;;5083999;28;20291;-88
2022/06/15 14:20:26;;;;;;;;;;;;;;;;;;5090044;28;20002;-89
2022/06/15 14:23:12;;;;;;;;;;;;;;;;;;5082832;28;19916;-88
2022/06/15 14:26:06;;;;;;;;;;;;;;;;;;5084552;28;19916;-88
2022/06/15 14:28:52;;;;;;;;;;;;;;;;;;5091831;28;19908;-88
2022/06/15 14:31:39;;;;;;;;;;;;;;;;;;5084841;28;19912;-87
2022/06/15 14:34:25;;;;;;;;;;;;;;;;;;5086372;28;20256;-89
2022/06/15 14:37:12;;;;;;;;;;;;;;;;;;5084741;28;19912;-88
2022/06/15 14:39:59;;;;;;;;;;;;;;;;;;5081837;28;19915;-90
2022/06/15 14:42:54;;;;;;;;;;;;;;;;;;5084667;28;19931;-88
2022/06/15 14:45:40;;;;;;;;;;;;;;;;;;5092551;28;19909;-88
2022/06/15 14:48:27;;;;;;;;;;;;;;;;;;5088848;28;19923;-88
2022/06/15 14:51:14;;;;;;;;;;;;;;;;;;5089795;28;19922;-87
2022/06/15 14:54:02;;;;;;;;;;;;;;;;;;5070347;28;20402;-88
2022/06/15 14:56:48;;;;;;;;;;;;;;;;;;5080482;28;19934;-88
2022/06/15 14:59:35;;;;;;;;;;;;;;;;;;5088278;28;19909;-87
2022/06/15 15:02:21;;;;;;;;;;;;;;;;;;5090938;28;19923;-87
2022/06/15 15:05:08;;;;;;;;;;;;;;;;;;5077918;28;19982;-87
2022/06/15 15:08:06;;;;;;;;;;;;;;;;;;5074239;28;19912;-88
2022/06/15 15:10:53;;;;;;;;;;;;;;;;;;5073610;28;20313;-87
2022/06/15 15:13:40;;;;;;;;;;;;;;;;;;5089427;28;20413;-89
2022/06/15 15:16:26;;;;;;;;;;;;;;;;;;5089998;28;19968;-88
2022/06/15 15:19:12;;;;;;;;;;;;;;;;;;5068264;28;19926;-89
2022/06/15 15:21:59;;;;;;;;;;;;;;;;;;5084057;28;19920;-89
2022/06/15 15:24:45;;;;;;;;;;;;;;;;;;5074983;28;19912;-90
2022/06/15 15:34:08;;;;;;;;;;;;;;;;;;5081398;28;19932;-86
2022/06/15 15:39:57;;;;;;;;;;;;;;;;;;5077384;28;20394;-84
2022/06/15 15:42:44;;;;;;;;;;;;;;;;;;5075366;28;19921;-84
2022/06/15 15:45:30;;;;;;;;;;;;;;;;;;5079142;28;19908;-82
2022/06/15 15:48:17;;;;;;;;;;;;;;;;;;5079172;28;19912;-84
2022/06/15 15:51:03;;;;;;;;;;;;;;;;;;5080328;28;19923;-85
2022/06/15 15:53:50;;;;;;;;;;;;;;;;;;5067652;28;19958;-85
2022/06/15 15:56:39;;;;;;;;;;;;;;;;;;5082261;28;20423;-85
2022/06/15 15:59:25;;;;;;;;;;;;;;;;;;5065668;28;19920;-84
2022/06/15 16:02:12;;;;;;;;;;;;;;;;;;5080662;28;19934;-84
2022/06/15 16:04:58;;;;;;;;;;;;;;;;;;5082685;28;20380;-84
2022/06/15 16:07:45;;;;;;;;;;;;;;;;;;5078842;28;20367;-83
2022/06/15 16:10:31;;;;;;;;;;;;;;;;;;5079707;28;19915;-81
2022/06/15 16:13:18;;;;;;;;;;;;;;;;;;5075616;28;19928;-80
2022/06/15 16:16:04;;;;;;;;;;;;;;;;;;5074549;28;19920;-81
2022/06/15 16:18:51;;;;;;;;;;;;;;;;;;5083339;28;20331;-78
2022/06/15 16:21:38;;;;;;;;;;;;;;;;;;5083955;28;19920;-82
2022/06/15 16:24:25;;;;;;;;;;;;;;;;;;5069724;28;20566;-82
2022/06/15 16:27:11;;;;;;;;;;;;;;;;;;5084249;28;19912;-83
2022/06/15 16:29:58;;;;;;;;;;;;;;;;;;5072979;28;19919;-83
2022/06/15 16:32:44;;;;;;;;;;;;;;;;;;5079769;28;19913;-83
2022/06/15 16:35:33;;;;;;;;;;;;;;;;;;5088563;28;19919;-83
2022/06/15 16:38:20;;;;;;;;;;;;;;;;;;5084869;28;19912;-83
2022/06/15 16:41:09;;;;;;;;;;;;;;;;;;5092085;28;20287;-83
2022/06/15 16:43:57;;;;;;;;;;;;;;;;;;5095426;28;19931;-83
2022/06/15 16:46:44;;;;;;;;;;;;;;;;;;5098381;28;19923;-81
2022/06/15 16:49:30;;;;;;;;;;;;;;;;;;5099362;28;19908;-82
2022/06/15 16:52:17;;;;;;;;;;;;;;;;;;5089465;28;19920;-83
2022/06/15 16:55:06;;;;;;;;;;;;;;;;;;5090816;28;20459;-83
2022/06/15 16:57:52;;;;;;;;;;;;;;;;;;5090340;28;19912;-83
2022/06/15 17:00:40;;;;;;;;;;;;;;;;;;5085220;28;19916;-83
2022/06/15 17:03:27;;;;;;;;;;;;;;;;;;5085445;28;19916;-83
2022/06/15 17:06:13;;;;;;;;;;;;;;;;;;5081432;28;20428;-83
2022/06/15 17:09:00;;;;;;;;;;;;;;;;;;5090218;28;19922;-85
2022/06/15 17:11:46;;;;;;;;;;;;;;;;;;5089172;28;19909;-83
2022/06/15 17:14:33;;;;;;;;;;;;;;;;;;5086595;28;20201;-83
2022/06/15 17:17:19;;;;;;;;;;;;;;;;;;5088439;28;19912;-82
2022/06/15 17:20:06;;;;;;;;;;;;;;;;;;5082801;28;19938;-83
2022/06/15 17:22:52;;;;;;;;;;;;;;;;;;5087943;28;20668;-84
2022/06/15 17:25:39;;;;;;;;;;;;;;;;;;5089020;28;19913;-83
2022/06/15 17:28:25;;;;;;;;;;;;;;;;;;5085803;28;20283;-83
2022/06/15 17:31:12;;;;;;;;;;;;;;;;;;5080927;28;19912;-83
2022/06/15 17:33:58;;;;;;;;;;;;;;;;;;5085723;28;19916;-83
2022/06/15 17:36:45;;;;;;;;;;;;;;;;;;5079030;28;19919;-87
2022/06/15 17:39:32;;;;;;;;;;;;;;;;;;5089682;28;20360;-88
2022/06/15 17:42:18;;;;;;;;;;;;;;;;;;5089599;28;19924;-88
2022/06/15 17:45:05;;;;;;;;;;;;;;;;;;5083489;28;19912;-87
2022/06/15 17:47:51;;;;;;;;;;;;;;;;;;5081230;28;19916;-88
2022/06/15 17:50:43;;;;;;;;;;;;;;;;;;5083325;28;20291;-84
2022/06/15 17:53:29;;;;;;;;;;;;;;;;;;5070037;28;19925;-87
2022/06/15 17:56:16;;;;;;;;;;;;;;;;;;5055260;28;19909;-86
2022/06/15 17:59:03;;;;;;;;;;;;;;;;;;5063081;28;19917;-87
2022/06/15 18:01:49;;;;;;;;;;;;;;;;;;5060654;28;19924;-85
2022/06/15 18:04:35;;;;;;;;;;;;;;;;;;5064685;28;19915;-87
2022/06/15 18:07:22;;;;;;;;;;;;;;;;;;5058487;28;19916;-86
2022/06/15 18:10:08;;;;;;;;;;;;;;;;;;5065764;28;19915;-88
2022/06/15 18:12:55;;;;;;;;;;;;;;;;;;5067267;28;19913;-86
2022/06/15 18:15:41;;;;;;;;;;;;;;;;;;5060900;28;19947;-87
2022/06/15 18:18:28;;;;;;;;;;;;;;;;;;5062945;28;19924;-77
2022/06/15 18:21:14;;;;;;;;;;;;;;;;;;5071524;28;19927;-83
2022/06/15 18:24:01;;;;;;;;;;;;;;;;;;5058935;28;20414;-90
2022/06/15 18:26:47;;;;;;;;;;;;;;;;;;5066098;28;20292;-85
2022/06/15 18:29:34;;;;;;;;;;;;;;;;;;5061635;28;19920;-85
2022/06/15 18:32:20;;;;;;;;;;;;;;;;;;5065970;28;19913;-85
2022/06/15 18:35:07;;;;;;;;;;;;;;;;;;5072968;28;19917;-85
2022/06/15 18:37:53;;;;;;;;;;;;;;;;;;5067896;28;19927;-86
2022/06/15 18:40:40;;;;;;;;;;;;;;;;;;5059770;28;19915;-82
2022/06/15 18:49:38;;;;;;;;;;;;;;;;;;5064859;28;19921;-86
2022/06/15 18:52:25;;;;;;;;;;;;;;;;;;5079661;28;19927;-87
2022/06/15 18:55:13;;;;;;;;;;;;;;;;;;5083906;28;19912;-89
2022/06/15 18:57:59;;;;;;;;;;;;;;;;;;5077040;28;20462;-85
2022/06/15 19:00:46;;;;;;;;;;;;;;;;;;5092382;28;19908;-81
2022/06/15 19:03:35;;;;;;;;;;;;;;;;;;5085269;28;20655;-84
2022/06/15 19:06:22;;;;;;;;;;;;;;;;;;5088641;28;19912;-86
2022/06/15 19:09:14;;;;;;;;;;;;;;;;;;5085186;28;20272;-83
2022/06/15 19:12:01;;;;;;;;;;;;;;;;;;5076230;28;20502;-88
2022/06/15 19:14:47;;;;;;;;;;;;;;;;;;5079326;28;19924;-80
2022/06/15 19:17:34;;;;;;;;;;;;;;;;;;5084476;28;20020;-91
2022/06/15 19:20:23;;;;;;;;;;;;;;;;;;5088370;28;19912;-88
2022/06/15 19:23:09;;;;;;;;;;;;;;;;;;5079623;28;19928;-85
2022/06/15 19:25:57;;;;;;;;;;;;;;;;;;5085694;28;19920;-90
2022/06/15 19:28:47;;;;;;;;;;;;;;;;;;5087169;28;19934;-85
2022/06/15 19:31:33;;;;;;;;;;;;;;;;;;5089890;28;19918;-87
2022/06/15 19:34:24;;;;;;;;;;;;;;;;;;5086750;28;19923;-86